createdAt,value
2018-08-03T00:02:10.855Z,23.00
2018-08-03T00:05:35.547Z,23.00
2018-08-03T00:09:02.484Z,22.90
2018-08-03T00:12:27.102Z,22.80
2018-08-03T00:15:51.579Z,22.70
2018-08-03T00:19:16.044Z,22.60
2018-08-03T00:22:40.491Z,22.50
2018-08-03T00:26:04.971Z,22.40
2018-08-03T00:29:29.411Z,22.40
2018-08-03T00:32:53.895Z,22.40
2018-08-03T00:36:18.366Z,22.30
2018-08-03T00:39:42.814Z,22.30
2018-08-03T00:43:07.423Z,22.10
2018-08-03T00:46:31.860Z,22.10
2018-08-03T00:49:56.364Z,22.00
2018-08-03T00:56:44.993Z,21.90
2018-08-03T01:00:09.409Z,21.90
2018-08-03T01:03:33.887Z,21.80
2018-08-03T01:06:58.402Z,21.80
2018-08-03T01:10:22.832Z,21.70
2018-08-03T01:13:47.278Z,21.60
2018-08-03T01:17:11.698Z,21.60
2018-08-03T01:20:36.124Z,21.50
2018-08-03T01:24:00.606Z,21.50
2018-08-03T01:27:25.058Z,21.50
2018-08-03T01:30:49.696Z,21.50
2018-08-03T01:34:14.208Z,21.50
2018-08-03T01:37:38.671Z,21.50
2018-08-03T01:41:03.345Z,21.40
2018-08-03T01:44:27.814Z,21.40
2018-08-03T01:47:52.266Z,21.30
2018-08-03T01:54:40.851Z,21.30
2018-08-03T01:58:05.295Z,21.30
2018-08-03T02:01:29.726Z,21.20
2018-08-03T02:04:54.163Z,21.20
2018-08-03T02:08:18.799Z,21.20
2018-08-03T02:11:43.256Z,21.20
2018-08-03T02:15:08.210Z,21.20
2018-08-03T02:18:32.722Z,21.20
2018-08-03T02:21:57.262Z,21.10
2018-08-03T02:25:21.665Z,21.00
2018-08-03T02:28:46.080Z,21.00
2018-08-03T02:32:11.134Z,21.00
2018-08-03T02:35:35.595Z,20.90
2018-08-03T02:39:00.027Z,20.90
2018-08-03T02:42:24.481Z,20.90
2018-08-03T02:45:48.953Z,20.80
2018-08-03T02:49:13.416Z,20.70
2018-08-03T02:52:37.871Z,20.70
2018-08-03T02:56:02.314Z,20.70
2018-08-03T02:59:26.749Z,20.60
2018-08-03T03:02:51.189Z,20.50
2018-08-03T03:06:15.609Z,20.40
2018-08-03T03:09:40.061Z,20.40
2018-08-03T03:13:04.475Z,20.50
2018-08-03T03:16:28.876Z,20.40
2018-08-03T03:19:53.451Z,20.30
2018-08-03T03:23:17.911Z,20.30
2018-08-03T03:26:42.743Z,20.20
2018-08-03T03:30:08.845Z,20.20
2018-08-03T03:33:33.316Z,20.10
2018-08-03T03:36:57.743Z,20.00
2018-08-03T03:40:22.302Z,20.00
2018-08-03T03:43:46.716Z,20.00
2018-08-03T03:47:11.162Z,19.90
2018-08-03T03:50:35.669Z,19.90
2018-08-03T03:54:00.260Z,19.80
2018-08-03T03:57:24.692Z,19.80
2018-08-03T04:00:49.329Z,19.80
2018-08-03T04:04:13.745Z,19.80
2018-08-03T04:07:38.175Z,19.70
2018-08-03T04:11:02.773Z,19.60
2018-08-03T04:14:27.147Z,19.60
2018-08-03T04:17:51.556Z,19.60
2018-08-03T04:21:15.976Z,19.60
2018-08-03T04:24:40.400Z,19.70
2018-08-03T04:28:04.889Z,19.70
2018-08-03T04:31:29.317Z,19.70
2018-08-03T04:34:53.729Z,19.70
2018-08-03T04:38:18.161Z,19.70
2018-08-03T04:41:42.570Z,19.70
2018-08-03T04:45:07.058Z,19.80
2018-08-03T04:48:31.547Z,19.80
2018-08-03T04:51:55.955Z,19.80
2018-08-03T04:55:20.386Z,19.90
2018-08-03T04:58:44.833Z,19.90
2018-08-03T05:02:10.756Z,19.90
2018-08-03T05:05:35.265Z,20.10
2018-08-03T05:08:59.704Z,20.10
2018-08-03T05:12:24.171Z,20.20
2018-08-03T05:15:48.693Z,20.20
2018-08-03T05:19:13.102Z,20.30
2018-08-03T05:22:37.604Z,20.30
2018-08-03T05:26:02.064Z,20.40
2018-08-03T05:29:26.458Z,20.40
2018-08-03T05:32:50.877Z,20.50
2018-08-03T05:36:15.447Z,20.70
2018-08-03T05:39:39.870Z,20.80
2018-08-03T05:43:04.335Z,20.90
2018-08-03T05:46:28.767Z,21.00
2018-08-03T05:49:53.298Z,21.00
2018-08-03T05:53:17.710Z,21.20
2018-08-03T05:56:42.147Z,21.30
2018-08-03T06:00:07.195Z,21.30
2018-08-03T06:03:31.627Z,21.40
2018-08-03T06:06:56.041Z,21.50
2018-08-03T06:10:20.496Z,21.60
2018-08-03T06:13:44.950Z,21.70
2018-08-03T06:17:09.450Z,21.80
2018-08-03T06:20:33.885Z,21.90
2018-08-03T06:23:58.386Z,22.10
2018-08-03T06:27:22.952Z,22.20
2018-08-03T06:30:47.492Z,22.30
2018-08-03T06:34:11.987Z,22.40
2018-08-03T06:37:36.810Z,22.50
2018-08-03T06:41:01.320Z,22.60
2018-08-03T06:44:25.710Z,22.70
2018-08-03T06:47:50.104Z,22.80
2018-08-03T06:51:14.515Z,23.00
2018-08-03T06:54:38.920Z,23.00
2018-08-03T06:58:03.371Z,23.10
2018-08-03T07:01:27.799Z,23.20
2018-08-03T07:04:52.386Z,23.30
2018-08-03T07:08:16.817Z,23.40
2018-08-03T07:11:41.330Z,23.50
2018-08-03T07:15:06.137Z,23.70
2018-08-03T07:18:30.602Z,23.80
2018-08-03T07:21:55.079Z,23.90
2018-08-03T07:25:21.302Z,24.00
2018-08-03T07:28:45.900Z,24.10
2018-08-03T07:32:10.317Z,24.20
2018-08-03T07:35:34.754Z,24.20
2018-08-03T07:38:59.192Z,24.30
2018-08-03T07:42:23.687Z,24.40
2018-08-03T07:45:48.206Z,24.50
2018-08-03T07:49:12.645Z,24.60
2018-08-03T07:52:37.199Z,24.70
2018-08-03T07:56:01.507Z,24.80
2018-08-03T07:59:25.953Z,25.00
2018-08-03T08:02:50.560Z,25.20
2018-08-03T08:06:15.003Z,25.30
2018-08-03T08:09:39.559Z,25.50
2018-08-03T08:13:03.933Z,25.60
2018-08-03T08:16:28.380Z,25.70
2018-08-03T08:19:52.848Z,25.80
2018-08-03T08:23:17.329Z,25.90
2018-08-03T08:26:41.823Z,26.10
2018-08-03T08:30:07.230Z,26.20
2018-08-03T08:33:31.681Z,26.40
2018-08-03T08:36:56.176Z,26.50
2018-08-03T08:40:20.576Z,26.70
2018-08-03T08:43:45.060Z,26.80
2018-08-03T08:47:10.006Z,26.90
2018-08-03T08:50:34.467Z,27.00
2018-08-03T08:53:58.896Z,27.20
2018-08-03T08:57:23.410Z,27.40
2018-08-03T09:00:47.864Z,27.60
2018-08-03T09:04:12.359Z,27.80
2018-08-03T09:07:36.875Z,27.90
2018-08-03T09:11:01.261Z,28.10
2018-08-03T09:14:25.798Z,28.40
2018-08-03T09:17:50.245Z,28.60
2018-08-03T09:21:14.792Z,28.70
2018-08-03T09:24:39.298Z,29.00
2018-08-03T09:28:03.664Z,29.20
2018-08-03T09:31:28.139Z,29.40
2018-08-03T09:34:52.628Z,29.60
2018-08-03T09:38:17.090Z,29.90
2018-08-03T09:41:41.535Z,30.10
2018-08-03T09:45:06.460Z,30.40
2018-08-03T09:48:30.999Z,30.80
2018-08-03T09:51:55.476Z,30.80
2018-08-03T09:55:19.936Z,31.10
2018-08-03T09:58:44.418Z,31.30
2018-08-03T10:02:08.928Z,31.70
2018-08-03T10:05:33.428Z,32.10
2018-08-03T10:08:57.851Z,32.50
2018-08-03T10:12:22.263Z,33.00
2018-08-03T10:15:46.689Z,33.50
2018-08-03T10:19:11.127Z,33.80
2018-08-03T10:22:35.556Z,34.50
2018-08-03T10:25:59.951Z,35.20
2018-08-03T10:29:24.420Z,35.70
2018-08-03T10:32:49.207Z,35.80
2018-08-03T10:36:20.345Z,36.40
2018-08-03T10:39:44.887Z,36.90
2018-08-03T10:43:09.339Z,37.30
2018-08-03T10:46:33.726Z,37.40
2018-08-03T10:49:58.459Z,38.00
2018-08-03T10:53:22.919Z,38.10
2018-08-03T10:56:47.633Z,38.50
2018-08-03T11:00:22.154Z,38.80
2018-08-03T11:03:46.605Z,38.90
2018-08-03T11:07:11.016Z,39.60
2018-08-03T11:10:36.471Z,40.20
2018-08-03T11:14:01.019Z,39.90
2018-08-03T11:17:25.407Z,39.40
2018-08-03T11:20:49.918Z,39.00
2018-08-03T11:24:15.997Z,38.70
2018-08-03T11:27:40.596Z,38.60
2018-08-03T11:31:06.558Z,38.20
2018-08-03T11:34:31.767Z,38.10
2018-08-03T11:37:56.716Z,38.00
2018-08-03T11:41:22.894Z,37.80
2018-08-03T11:44:48.463Z,38.20
2018-08-03T11:48:12.844Z,38.40
2018-08-03T11:51:38.016Z,38.30
2018-08-03T11:55:03.300Z,38.40
2018-08-03T11:58:27.916Z,38.60
2018-08-03T12:01:52.396Z,38.80
2018-08-03T12:05:16.832Z,38.70
2018-08-03T12:08:41.253Z,38.90
2018-08-03T12:12:05.714Z,39.00
2018-08-03T12:15:30.308Z,39.40
2018-08-03T12:18:54.747Z,39.50
2018-08-03T12:22:19.848Z,39.30
2018-08-03T12:25:44.510Z,39.20
2018-08-03T12:29:08.909Z,39.20
2018-08-03T12:32:33.368Z,39.00
2018-08-03T12:35:57.780Z,38.20
2018-08-03T12:39:22.307Z,38.30
2018-08-03T12:42:46.786Z,39.00
2018-08-03T12:46:11.219Z,39.90
2018-08-03T12:49:35.724Z,40.20
2018-08-03T12:53:00.213Z,40.90
2018-08-03T12:56:24.900Z,41.70
2018-08-03T12:59:49.342Z,42.20
2018-08-03T13:03:13.755Z,42.90
2018-08-03T13:06:39.645Z,43.20
2018-08-03T13:13:28.199Z,43.00
2018-08-03T13:16:52.621Z,43.90
2018-08-03T13:23:53.360Z,44.30
2018-08-03T13:27:18.205Z,43.70
2018-08-03T13:30:42.630Z,41.70
2018-08-03T13:34:07.209Z,40.60
2018-08-03T13:37:31.667Z,39.30
2018-08-03T13:40:56.098Z,38.30
2018-08-03T13:44:20.506Z,37.80
2018-08-03T13:47:44.928Z,37.80
2018-08-03T13:51:09.353Z,37.40
2018-08-03T13:54:33.793Z,38.30
2018-08-03T13:57:58.290Z,40.90
2018-08-03T14:01:44.394Z,42.30
2018-08-03T14:05:10.238Z,42.00
2018-08-03T14:08:35.023Z,41.40
2018-08-03T14:11:59.467Z,42.50
2018-08-03T14:18:48.324Z,44.20
2018-08-03T14:22:12.925Z,44.90
2018-08-03T14:25:37.241Z,45.50
2018-08-03T14:29:01.641Z,46.70
2018-08-03T14:32:26.077Z,47.40
2018-08-03T14:35:50.507Z,48.70
2018-08-03T14:39:14.937Z,48.80
2018-08-03T14:42:39.354Z,49.10
2018-08-03T14:46:03.770Z,49.20
2018-08-03T14:49:28.160Z,49.60
2018-08-03T14:52:52.636Z,48.80
2018-08-03T14:56:17.068Z,48.10
2018-08-03T14:59:41.467Z,48.60
2018-08-03T15:03:05.937Z,49.00
2018-08-03T15:06:30.360Z,49.70
2018-08-03T15:09:55.462Z,49.70
2018-08-03T15:13:19.875Z,50.20
2018-08-03T15:16:44.288Z,50.40
2018-08-03T15:20:09.658Z,50.20
2018-08-03T15:23:34.068Z,50.40
2018-08-03T15:26:58.467Z,51.30
2018-08-03T15:30:22.926Z,51.40
2018-08-03T15:33:47.354Z,51.20
2018-08-03T15:37:11.787Z,51.00
2018-08-03T15:40:36.306Z,50.40
2018-08-03T15:44:00.847Z,51.20
2018-08-03T15:47:25.387Z,51.40
2018-08-03T15:50:49.770Z,51.40
2018-08-03T15:54:14.169Z,51.60
2018-08-03T15:57:38.558Z,51.00
2018-08-03T16:01:02.956Z,50.90
2018-08-03T16:04:27.386Z,50.40
2018-08-03T16:07:51.783Z,50.40
2018-08-03T16:11:16.180Z,50.40
2018-08-03T16:14:40.630Z,50.60
2018-08-03T16:18:05.747Z,50.10
2018-08-03T16:21:30.126Z,49.80
2018-08-03T16:24:54.583Z,49.60
2018-08-03T16:28:18.983Z,48.90
2018-08-03T16:31:43.439Z,46.70
2018-08-03T16:35:09.027Z,44.60
2018-08-03T16:38:33.433Z,43.70
2018-08-03T16:41:57.878Z,43.70
2018-08-03T16:45:22.384Z,44.10
2018-08-03T16:48:46.787Z,44.50
2018-08-03T16:52:11.242Z,44.50
2018-08-03T16:55:35.638Z,44.30
2018-08-03T16:59:00.123Z,43.90
2018-08-03T17:02:24.528Z,43.60
2018-08-03T17:06:08.750Z,42.90
2018-08-03T17:09:33.227Z,41.40
2018-08-03T17:12:57.641Z,40.00
2018-08-03T17:16:22.093Z,39.20
2018-08-03T17:19:46.487Z,38.60
2018-08-03T17:23:10.925Z,38.00
2018-08-03T17:26:35.359Z,37.70
2018-08-03T17:29:59.819Z,37.20
2018-08-03T17:33:24.812Z,36.80
2018-08-03T17:36:52.614Z,36.60
2018-08-03T17:40:17.600Z,36.40
2018-08-03T17:43:42.074Z,36.00
2018-08-03T17:47:06.481Z,35.70
2018-08-03T17:50:30.905Z,35.40
2018-08-03T17:53:55.400Z,35.10
2018-08-03T17:57:19.949Z,34.80
2018-08-03T18:00:44.558Z,34.50
2018-08-03T18:04:09.050Z,34.10
2018-08-03T18:07:33.585Z,33.90
2018-08-03T18:10:58.788Z,33.70
2018-08-03T18:14:23.206Z,33.40
2018-08-03T18:21:11.736Z,32.90
2018-08-03T18:24:36.465Z,32.60
2018-08-03T18:28:01.136Z,32.50
2018-08-03T18:31:25.628Z,32.30
2018-08-03T18:34:50.068Z,32.20
2018-08-03T18:38:14.518Z,31.90
2018-08-03T18:41:39.157Z,31.80
2018-08-03T18:45:03.709Z,31.70
2018-08-03T18:48:28.330Z,31.50
2018-08-03T18:51:52.875Z,31.40
2018-08-03T18:55:17.364Z,31.20
2018-08-03T18:58:41.810Z,31.10
2018-08-03T19:02:06.461Z,31.00
2018-08-03T19:05:30.892Z,30.80
2018-08-03T19:08:55.327Z,30.70
2018-08-03T19:12:19.771Z,30.50
2018-08-03T19:15:44.249Z,30.40
2018-08-03T19:19:08.667Z,30.30
2018-08-03T19:22:33.089Z,30.20
2018-08-03T19:25:57.578Z,30.10
2018-08-03T19:29:22.966Z,29.90
2018-08-03T19:36:13.456Z,29.80
2018-08-03T19:39:39.668Z,29.70
2018-08-03T19:43:04.273Z,29.70
2018-08-03T19:46:29.363Z,29.60
2018-08-03T19:49:55.512Z,29.50
2018-08-03T19:53:21.265Z,29.50
2018-08-03T19:56:46.030Z,29.40
2018-08-03T20:00:13.783Z,29.40
2018-08-03T20:03:39.759Z,29.30
2018-08-03T20:07:04.435Z,29.20
2018-08-03T20:10:30.685Z,29.10
2018-08-03T20:13:55.188Z,29.00
2018-08-03T20:17:19.699Z,29.00
2018-08-03T20:20:45.567Z,28.90
2018-08-03T20:24:11.188Z,28.80
2018-08-03T20:27:37.934Z,28.70
2018-08-03T20:31:04.095Z,28.70
2018-08-03T20:34:29.558Z,28.60
2018-08-03T20:37:53.995Z,28.60
2018-08-03T20:41:19.574Z,28.60
2018-08-03T20:44:45.107Z,28.60
2018-08-03T20:48:10.068Z,28.50
2018-08-03T20:51:35.443Z,28.40
2018-08-03T20:55:01.196Z,28.30
2018-08-03T20:58:28.575Z,28.30
2018-08-03T21:01:56.043Z,28.20
2018-08-03T21:05:21.947Z,28.20
2018-08-03T21:08:47.403Z,28.20
2018-08-03T21:12:12.706Z,28.10
2018-08-03T21:15:39.604Z,28.10
2018-08-03T21:19:04.866Z,28.10
2018-08-03T21:22:29.325Z,28.10
2018-08-03T21:25:53.752Z,28.10
2018-08-03T21:29:18.177Z,28.20
2018-08-03T21:32:42.705Z,28.10
2018-08-03T21:36:07.239Z,28.20
2018-08-03T21:39:31.635Z,28.20
2018-08-03T21:42:56.026Z,28.20
2018-08-03T21:46:20.472Z,28.30
2018-08-03T21:49:44.923Z,28.30
2018-08-03T21:53:09.364Z,28.30
2018-08-03T21:56:34.437Z,28.20
2018-08-03T21:59:59.006Z,28.20
2018-08-03T22:03:24.758Z,28.10
2018-08-03T22:06:55.390Z,28.00
2018-08-03T22:10:24.906Z,28.00
2018-08-03T22:13:49.378Z,27.90
2018-08-03T22:17:13.823Z,27.80
2018-08-03T22:20:38.307Z,27.70
2018-08-03T22:24:02.753Z,27.70
2018-08-03T22:27:27.227Z,27.60
2018-08-03T22:30:52.325Z,27.60
2018-08-03T22:34:16.768Z,27.50
2018-08-03T22:37:41.198Z,27.50
2018-08-03T22:41:09.497Z,27.40
2018-08-03T22:44:37.600Z,27.40
2018-08-03T22:48:02.077Z,27.40
2018-08-03T22:51:28.617Z,27.30
2018-08-03T22:55:02.765Z,27.20
2018-08-03T22:58:27.588Z,27.10
2018-08-03T23:01:52.009Z,27.00
2018-08-03T23:05:16.750Z,27.00
2018-08-03T23:08:41.209Z,26.90
2018-08-03T23:12:07.871Z,26.90
2018-08-03T23:15:32.301Z,26.90
2018-08-03T23:18:56.700Z,26.80
2018-08-03T23:22:22.344Z,26.80
2018-08-03T23:25:46.923Z,26.80
2018-08-03T23:29:13.065Z,26.80
2018-08-03T23:32:40.034Z,26.90
2018-08-03T23:36:04.686Z,26.90
2018-08-03T23:39:29.189Z,26.80
2018-08-03T23:42:57.314Z,26.80
2018-08-03T23:46:21.756Z,26.80
2018-08-03T23:49:46.289Z,26.90
2018-08-03T23:53:10.760Z,26.80
2018-08-03T23:56:35.208Z,26.80
2018-08-03T23:59:59.616Z,26.80
